Time;durP1;ratioP1;P1;durP2;ratioP2;P2;SDS_P1;SDS_P2;PMS_P1;PMS_P2;Temp;Humidity;BMP_temperature;BMP_pressure;BME280_temperature;BME280_humidity;BME280_pressure;Samples;Min_cycle;Max_cycle;Signal;HPM_P1;HPM_P2
2022/11/10 00:01:20;;;;;;;12.90;4.03;;;8.60;41.60;;;;;;5041707;28;20423;-80
2022/11/10 00:04:05;;;;;;;14.53;3.87;;;8.60;41.70;;;;;;5040713;28;20466;-79
2022/11/10 00:06:43;;;;;;;21.93;4.40;;;8.60;41.70;;;;;;5036417;28;20478;-79
2022/11/10 00:09:12;;;;;;;21.87;5.70;;;8.60;41.70;;;;;;5044658;28;20439;-79
2022/11/10 00:11:38;;;;;;;10.33;3.90;;;8.60;41.60;;;;;;5039271;28;20419;-80
2022/11/10 00:17:12;;;;;;;20.23;4.60;;;8.60;48.70;;;;;;5048339;28;20195;-79
2022/11/10 00:19:42;;;;;;;13.77;5.07;;;8.50;41.60;;;;;;5053728;28;20426;-80
2022/11/10 00:22:12;;;;;;;6.50;4.37;;;8.50;41.60;;;;;;5053939;28;20975;-80
2022/11/10 00:25:00;;;;;;;13.37;4.70;;;8.40;41.60;;;;;;5043039;28;20965;-80
2022/11/10 00:28:05;;;;;;;17.03;4.70;;;8.40;41.50;;;;;;5052829;28;20422;-83
2022/11/10 00:31:06;;;;;;;9.13;4.17;;;8.40;41.50;;;;;;5047219;28;20426;-83
2022/11/10 00:33:48;;;;;;;27.33;5.83;;;8.40;41.60;;;;;;5061825;28;20430;-83
2022/11/10 00:36:30;;;;;;;12.43;3.90;;;8.40;41.50;;;;;;5052645;28;20876;-83
2022/11/10 00:39:06;;;;;;;7.67;4.10;;;8.30;41.60;;;;;;5060829;28;20442;-83
2022/11/10 00:41:53;;;;;;;16.63;4.30;;;8.30;41.40;;;;;;5034311;28;20406;-83
2022/11/10 00:44:19;;;;;;;16.03;4.03;;;8.30;41.40;;;;;;5050507;28;20505;-80
2022/11/10 00:47:17;;;;;;;10.87;4.20;;;8.30;41.40;;;;;;5043174;28;20494;-80
2022/11/10 00:50:17;;;;;;;11.77;4.77;;;8.20;47.40;;;;;;5041907;28;20172;-80
2022/11/10 00:52:48;;;;;;;12.90;3.93;;;8.20;43.50;;;;;;5047816;28;20432;-80
2022/11/10 00:55:18;;;;;;;18.00;5.00;;;8.20;49.60;;;;;;5052831;28;20920;-79
2022/11/10 00:57:48;;;;;;;12.63;4.20;;;8.20;50.00;;;;;;5045407;28;20956;-80
2022/11/10 01:00:24;;;;;;;9.60;4.10;;;8.10;51.50;;;;;;5033526;28;20423;-80
2022/11/10 01:02:54;;;;;;;9.17;3.83;;;8.20;50.60;;;;;;5034349;28;20902;-79
2022/11/10 01:05:20;;;;;;;17.47;4.57;;;8.20;50.40;;;;;;5052694;28;20528;-80
2022/11/10 01:07:46;;;;;;;7.33;3.87;;;8.10;51.30;;;;;;5051904;28;20806;-80
2022/11/10 01:10:12;;;;;;;13.20;4.60;;;8.20;54.50;;;;;;5047615;28;20411;-80
2022/11/10 01:13:11;;;;;;;7.40;4.43;;;8.10;53.20;;;;;;5042862;28;20183;-83
2022/11/10 01:15:48;;;;;;;12.67;4.50;;;8.10;52.00;;;;;;5044740;28;20423;-83
2022/11/10 01:18:35;;;;;;;17.73;4.70;;;8.10;53.20;;;;;;5040287;28;20795;-83
2022/11/10 01:21:19;;;;;;;16.83;4.00;;;8.10;50.90;;;;;;5054680;28;20521;-83
2022/11/10 01:23:48;;;;;;;11.80;4.33;;;8.10;41.30;;;;;;5056098;28;20802;-83
2022/11/10 01:26:48;;;;;;;16.90;4.17;;;8.10;41.20;;;;;;5060680;28;20413;-83
2022/11/10 01:29:30;;;;;;;9.87;3.93;;;8.00;41.10;;;;;;5045384;28;20426;-83
2022/11/10 01:35:24;;;;;;;8.53;3.70;;;7.90;41.00;;;;;;5047769;28;20521;-83
2022/11/10 01:37:53;;;;;;;16.00;3.93;;;7.90;41.10;;;;;;5037748;28;20395;-83
2022/11/10 01:43:42;;;;;;;17.87;4.13;;;7.80;41.10;;;;;;5043733;28;20461;-79
2022/11/10 01:46:10;;;;;;;7.07;4.00;;;7.80;41.00;;;;;;5046616;28;20430;-79
2022/11/10 01:49:13;;;;;;;7.43;4.30;;;7.70;40.90;;;;;;5052356;28;20418;-79
2022/11/10 01:51:43;;;;;;;19.47;4.17;;;7.70;40.90;;;;;;5048700;28;20433;-79
2022/11/10 01:54:21;;;;;;;10.90;4.13;;;7.60;41.00;;;;;;5044704;28;20433;-79
2022/11/10 01:57:12;;;;;;;9.10;4.13;;;7.60;40.80;;;;;;5044867;28;20495;-80
2022/11/10 02:00:29;;;;;;;8.67;3.60;;;7.50;40.70;;;;;;5037219;28;20467;-80
2022/11/10 02:03:10;;;;;;;9.30;4.10;;;7.50;40.70;;;;;;5042238;28;20492;-80
2022/11/10 02:05:35;;;;;;;10.60;3.97;;;7.40;40.70;;;;;;5056408;28;20503;-80
2022/11/10 02:08:14;;;;;;;9.60;3.97;;;7.40;40.70;;;;;;5055200;28;20437;-79
2022/11/10 02:10:48;;;;;;;10.70;3.80;;;7.40;40.70;;;;;;5051855;28;20172;-79
2022/11/10 02:13:14;;;;;;;13.00;4.90;;;7.40;41.00;;;;;;5057089;28;20865;-80
2022/11/10 02:15:39;;;;;;;11.43;4.10;;;7.50;40.70;;;;;;5062054;28;20456;-79
2022/11/10 02:18:12;;;;;;;11.30;3.87;;;7.30;40.60;;;;;;5055198;28;20176;-80
2022/11/10 02:20:54;;;;;;;13.33;4.30;;;7.30;40.60;;;;;;5056278;28;20647;-79
2022/11/10 02:23:30;;;;;;;14.53;4.50;;;7.30;40.60;;;;;;5037298;28;20450;-80
2022/11/10 02:26:04;;;;;;;15.13;4.07;;;7.30;40.80;;;;;;5052918;28;20517;-79
2022/11/10 02:29:11;;;;;;;12.47;3.90;;;7.30;40.70;;;;;;5055038;28;20413;-80
2022/11/10 02:32:12;;;;;;;4.07;3.53;;;7.30;40.60;;;;;;5039070;28;20438;-79
2022/11/10 02:35:23;;;;;;;13.07;5.50;;;7.30;40.70;;;;;;5045790;28;20426;-80
2022/11/10 02:37:54;;;;;;;19.30;5.70;;;7.20;40.50;;;;;;5055556;28;20406;-80
2022/11/10 02:40:30;;;;;;;11.80;4.67;;;7.20;40.50;;;;;;5042229;28;20803;-80
2022/11/10 02:43:41;;;;;;;6.97;3.87;;;7.20;40.50;;;;;;5043418;28;20977;-82
2022/11/10 02:46:07;;;;;;;13.30;3.93;;;7.20;40.50;;;;;;5045446;28;20453;-83
2022/11/10 02:49:17;;;;;;;13.03;4.03;;;7.20;40.50;;;;;;5041903;28;20434;-83
2022/11/10 02:51:43;;;;;;;11.47;4.30;;;7.20;40.60;;;;;;5056561;28;20164;-83
2022/11/10 02:54:18;;;;;;;13.07;4.03;;;7.20;40.50;;;;;;5055472;28;20487;-83
2022/11/10 02:57:23;;;;;;;12.43;4.07;;;7.10;40.40;;;;;;5044770;28;20179;-83
2022/11/10 02:59:49;;;;;;;8.80;4.03;;;7.10;40.60;;;;;;5054783;28;20457;-79
2022/11/10 03:02:30;;;;;;;19.57;5.13;;;7.10;40.60;;;;;;5055233;28;20539;-79
2022/11/10 03:04:55;;;;;;;12.57;3.90;;;7.10;40.40;;;;;;5036970;28;20687;-80
2022/11/10 03:07:21;;;;;;;11.23;4.60;;;7.10;43.40;;;;;;5036868;28;20422;-80
2022/11/10 03:13:47;;;;;;;8.90;3.90;;;7.00;41.40;;;;;;5055172;28;20194;-83
2022/11/10 03:16:13;;;;;;;26.17;4.80;;;7.00;40.30;;;;;;5041141;28;20414;-79
2022/11/10 03:19:23;;;;;;;29.30;4.80;;;6.90;40.20;;;;;;5055485;28;20426;-80
2022/11/10 03:21:54;;;;;;;9.93;4.13;;;6.90;40.30;;;;;;5035564;28;20172;-79
2022/11/10 03:24:20;;;;;;;13.67;4.13;;;6.90;40.30;;;;;;5035310;28;20414;-80
2022/11/10 03:27:23;;;;;;;11.73;4.00;;;6.80;40.30;;;;;;5050263;28;20434;-79
2022/11/10 03:36:42;;;;;;;10.40;3.90;;;6.80;40.10;;;;;;5045015;28;20475;-84
2022/11/10 03:39:35;;;;;;;13.07;3.97;;;6.80;40.20;;;;;;5055435;28;20390;-83
2022/11/10 03:42:12;;;;;;;11.30;4.27;;;6.80;40.10;;;;;;5054992;28;20429;-83
2022/11/10 03:44:42;;;;;;;13.97;4.07;;;6.70;40.10;;;;;;5055506;28;20895;-79
2022/11/10 03:47:24;;;;;;;8.93;3.77;;;6.70;40.10;;;;;;5054088;28;20929;-80
2022/11/10 03:49:54;;;;;;;10.50;3.23;;;6.80;40.20;;;;;;5054520;28;20417;-79
2022/11/10 03:52:59;;;;;;;13.50;3.87;;;6.70;40.10;;;;;;5035442;28;20466;-79
2022/11/10 03:56:00;;;;;;;7.47;3.13;;;6.60;40.20;;;;;;5047837;28;20497;-80
2022/11/10 03:58:39;;;;;;;11.80;3.80;;;6.60;40.00;;;;;;5050626;28;20460;-79
2022/11/10 04:10:18;;;;;;;11.07;3.60;;;6.50;39.90;;;;;;5045304;28;20394;-83
2022/11/10 04:18:50;;;;;;;13.57;4.20;;;6.40;40.00;;;;;;5050782;28;20908;-84
2022/11/10 04:22:05;;;;;;;13.00;4.20;;;6.40;39.80;;;;;;5054365;28;20417;-84
2022/11/10 04:24:36;;;;;;;10.37;4.27;;;6.40;40.00;;;;;;5054427;28;20213;-83
2022/11/10 04:27:41;;;;;;;14.90;4.17;;;6.30;39.70;;;;;;5053049;28;20426;-84
2022/11/10 04:30:29;;;;;;;9.47;4.80;;;6.30;39.70;;;;;;5054787;28;20386;-79
2022/11/10 04:32:55;;;;;;;6.57;3.67;;;6.30;39.90;;;;;;5045900;28;20414;-80
2022/11/10 04:35:36;;;;;;;8.27;3.90;;;6.40;39.80;;;;;;5049536;28;20494;-79
2022/11/10 04:38:24;;;;;;;9.77;4.03;;;6.30;39.70;;;;;;5062651;28;20179;-80
2022/11/10 04:40:54;;;;;;;15.90;4.23;;;6.40;39.80;;;;;;5053010;28;20423;-79
2022/11/10 04:43:42;;;;;;;13.90;4.43;;;6.30;39.70;;;;;;5053742;28;20457;-79
2022/11/10 04:46:29;;;;;;;10.63;4.10;;;6.40;39.80;;;;;;5054221;28;20414;-84
2022/11/10 04:49:07;;;;;;;8.33;3.83;;;6.40;39.80;;;;;;5052827;28;20418;-84
2022/11/10 04:54:54;;;;;;;22.93;5.00;;;6.30;39.70;;;;;;5053928;28;20415;-84
2022/11/10 04:57:30;;;;;;;11.87;5.80;;;6.30;40.00;;;;;;5050798;28;20834;-83
2022/11/10 05:00:35;;;;;;;13.33;5.60;;;6.30;45.50;;;;;;5052794;28;20681;-79
2022/11/10 05:03:09;;;;;;;16.53;5.23;;;6.40;52.50;;;;;;5032394;28;20874;-80
2022/11/10 05:05:35;;;;;;;15.57;5.40;;;6.40;56.30;;;;;;5045483;28;20448;-80
2022/11/10 05:08:18;;;;;;;17.13;4.93;;;6.40;55.20;;;;;;5065309;28;20414;-80
2022/11/10 05:10:54;;;;;;;14.50;3.93;;;6.40;55.10;;;;;;5053957;28;20194;-80
2022/11/10 05:16:42;;;;;;;18.93;5.07;;;6.40;53.40;;;;;;5051086;28;20409;-80
2022/11/10 05:19:30;;;;;;;14.73;4.80;;;6.40;52.80;;;;;;5033811;28;20400;-80
2022/11/10 05:22:00;;;;;;;26.33;4.93;;;6.40;51.10;;;;;;5052850;28;20438;-79
2022/11/10 05:28:00;;;;;;;19.13;5.30;;;6.40;48.30;;;;;;5051274;28;20414;-83
2022/11/10 05:30:54;;;;;;;13.63;5.50;;;6.40;51.90;;;;;;5032933;28;20925;-84
2022/11/10 05:33:59;;;;;;;20.47;5.23;;;6.40;50.60;;;;;;5049117;28;20484;-80
2022/11/10 05:36:30;;;;;;;20.97;6.00;;;6.40;50.80;;;;;;5051485;28;20410;-80
2022/11/10 05:38:56;;;;;;;26.87;5.80;;;6.40;51.90;;;;;;5052028;28;20420;-81
2022/11/10 05:41:24;;;;;;;11.60;5.30;;;6.40;53.00;;;;;;5046222;28;20414;-81
2022/11/10 05:43:54;;;;;;;12.93;4.73;;;6.40;54.90;;;;;;5043331;28;20533;-80
2022/11/10 05:46:20;;;;;;;14.67;5.37;;;6.40;55.30;;;;;;5039515;28;21094;-77
2022/11/10 05:48:46;;;;;;;22.70;6.50;;;6.40;54.90;;;;;;5051786;28;20483;-76
2022/11/10 05:51:18;;;;;;;18.77;5.87;;;6.50;61.20;;;;;;5039171;28;20430;-76
2022/11/10 05:54:06;;;;;;;18.10;6.73;;;6.50;64.30;;;;;;5050058;28;20469;-76
2022/11/10 05:56:31;;;;;;;23.40;6.43;;;6.60;65.50;;;;;;5051396;28;21003;-69
2022/11/10 05:58:57;;;;;;;12.43;6.50;;;6.60;64.00;;;;;;5051053;28;20433;-69
2022/11/10 06:01:24;;;;;;;13.00;6.73;;;6.60;65.90;;;;;;5050504;28;20171;-76
2022/11/10 06:04:00;;;;;;;24.60;9.03;;;6.70;67.60;;;;;;5053949;28;20650;-77
2022/11/10 06:06:30;;;;;;;20.50;8.77;;;6.70;73.30;;;;;;5042779;28;20446;-74
2022/11/10 06:08:58;;;;;;;14.80;6.00;;;6.70;76.60;;;;;;5054776;28;20414;-75
2022/11/10 06:11:36;;;;;;;17.07;7.50;;;6.80;77.30;;;;;;5056684;28;20855;-76
2022/11/10 06:14:02;;;;;;;20.07;8.93;;;6.80;75.00;;;;;;5056884;28;20560;-74
2022/11/10 06:16:30;;;;;;;23.97;9.13;;;6.80;75.10;;;;;;5057116;28;20491;-77
2022/11/10 06:19:12;;;;;;;25.20;8.10;;;6.80;75.60;;;;;;5054690;28;20943;-78
2022/11/10 06:21:37;;;;;;;26.63;8.77;;;6.80;81.30;;;;;;5055197;28;20763;-74
2022/11/10 06:24:03;;;;;;;18.50;8.30;;;6.90;80.80;;;;;;5049901;28;20453;-73
2022/11/10 06:26:42;;;;;;;13.77;7.70;;;6.90;81.00;;;;;;5054942;28;20195;-73
2022/11/10 06:29:12;;;;;;;16.23;7.90;;;6.90;82.20;;;;;;5055970;28;20425;-73
2022/11/10 06:31:48;;;;;;;18.73;7.70;;;7.00;79.70;;;;;;5040675;28;20941;-73
2022/11/10 06:34:18;;;;;;;23.27;8.47;;;6.90;74.90;;;;;;5042850;28;20418;-73
2022/11/10 06:36:44;;;;;;;20.77;8.87;;;6.90;71.40;;;;;;5048123;28;20920;-73
2022/11/10 06:39:18;;;;;;;18.70;8.03;;;6.80;69.90;;;;;;5053307;28;20434;-76
2022/11/10 06:41:54;;;;;;;28.73;8.50;;;6.80;69.70;;;;;;5049222;28;20179;-76
2022/11/10 06:44:20;;;;;;;23.40;8.37;;;6.80;68.10;;;;;;5054650;28;20524;-76
2022/11/10 06:46:46;;;;;;;25.23;8.33;;;6.80;69.20;;;;;;5037657;28;20423;-76
2022/11/10 06:49:30;;;;;;;18.93;8.03;;;6.80;70.60;;;;;;5053934;28;20547;-75
2022/11/10 06:51:55;;;;;;;20.73;7.30;;;6.80;70.90;;;;;;5040773;28;20266;-71
2022/11/10 06:54:21;;;;;;;18.50;8.53;;;6.90;69.50;;;;;;5047539;28;20864;-72
2022/11/10 06:56:48;;;;;;;14.80;6.80;;;6.90;66.60;;;;;;5054933;28;20557;-72
2022/11/10 06:59:14;;;;;;;23.67;8.33;;;6.90;66.40;;;;;;5050864;28;20510;-72
2022/11/10 07:01:40;;;;;;;24.50;8.53;;;7.00;65.40;;;;;;5055160;28;20444;-75
2022/11/10 07:04:06;;;;;;;31.27;11.60;;;7.00;66.20;;;;;;5051354;28;20283;-75
2022/11/10 07:06:36;;;;;;;29.60;11.10;;;7.10;74.70;;;;;;5053847;28;20274;-75
2022/11/10 07:09:06;;;;;;;36.10;12.80;;;7.10;81.90;;;;;;5048050;28;20453;-75
2022/11/10 07:12:00;;;;;;;30.97;13.27;;;7.20;88.10;;;;;;5049272;28;20434;-75
2022/11/10 07:14:42;;;;;;;26.70;10.83;;;7.40;93.00;;;;;;5051359;28;20427;-75
2022/11/10 07:17:18;;;;;;;36.30;13.50;;;7.50;94.60;;;;;;5050260;28;20540;-75
2022/11/10 07:19:48;;;;;;;54.13;14.60;;;7.60;96.40;;;;;;5041993;28;20425;-75
2022/11/10 07:22:18;;;;;;;30.97;13.57;;;7.70;98.70;;;;;;5049680;28;20935;-75
2022/11/10 07:24:48;;;;;;;26.90;11.50;;;7.70;99.90;;;;;;5054866;28;20426;-75
2022/11/10 07:27:36;;;;;;;45.07;13.00;;;7.80;99.90;;;;;;5054685;28;20980;-75
2022/11/10 07:30:03;;;;;;;32.27;11.60;;;8.00;99.90;;;;;;5044114;28;20449;-74
2022/11/10 07:32:30;;;;;;;40.67;11.47;;;8.10;99.90;;;;;;5043845;28;20425;-73
2022/11/10 07:34:56;;;;;;;31.83;10.30;;;8.10;99.90;;;;;;5051911;28;20430;-72
2022/11/10 07:37:22;;;;;;;44.40;12.80;;;8.20;99.90;;;;;;5055831;28;20422;-72
2022/11/10 07:39:48;;;;;;;39.17;10.83;;;8.20;99.90;;;;;;5044493;28;20768;-73
2022/11/10 07:42:14;;;;;;;25.40;10.90;;;8.30;99.90;;;;;;5051012;28;20695;-72
2022/11/10 07:44:39;;;;;;;28.40;10.60;;;8.40;99.90;;;;;;5040406;28;20188;-73
2022/11/10 07:47:05;;;;;;;40.07;11.10;;;8.50;99.90;;;;;;5050910;28;20427;-72
2022/11/10 07:49:31;;;;;;;38.87;10.53;;;8.60;99.90;;;;;;5052902;28;20646;-72
2022/11/10 07:52:00;;;;;;;29.93;10.67;;;8.70;99.90;;;;;;5049047;28;20233;-72
2022/11/10 07:54:30;;;;;;;34.80;10.17;;;8.80;99.90;;;;;;5046425;28;20188;-72
2022/11/10 07:56:56;;;;;;;27.90;10.67;;;8.80;99.90;;;;;;5039945;28;20807;-72
2022/11/10 07:59:30;;;;;;;33.70;10.93;;;8.90;99.90;;;;;;5053129;28;20509;-72
2022/11/10 08:01:56;;;;;;;29.00;11.20;;;8.90;99.90;;;;;;5053197;28;20178;-74
2022/11/10 08:04:24;;;;;;;35.43;11.50;;;9.10;99.80;;;;;;5050916;28;20952;-74
2022/11/10 08:07:30;;;;;;;32.37;10.87;;;9.20;99.40;;;;;;5049545;28;20682;-75
2022/11/10 08:09:55;;;;;;;31.37;10.87;;;9.20;99.60;;;;;;5044796;28;20419;-75
2022/11/10 08:12:24;;;;;;;32.67;9.87;;;9.30;99.90;;;;;;5054438;28;20420;-75
2022/11/10 08:15:18;;;;;;;30.63;9.97;;;9.30;98.10;;;;;;5041880;28;20676;-75
2022/11/10 08:17:43;;;;;;;31.00;10.50;;;9.30;98.90;;;;;;5045906;28;20441;-73
2022/11/10 08:20:10;;;;;;;22.97;9.60;;;9.40;99.70;;;;;;5047878;28;20466;-72
2022/11/10 08:22:36;;;;;;;22.97;9.40;;;9.50;99.20;;;;;;5053787;28;20461;-72
2022/11/10 08:25:03;;;;;;;25.73;9.40;;;9.50;99.40;;;;;;5047645;28;20419;-72
2022/11/10 08:27:29;;;;;;;23.50;9.33;;;9.70;98.40;;;;;;5036158;28;20183;-73
2022/11/10 08:29:55;;;;;;;31.20;8.80;;;9.70;97.30;;;;;;5036464;28;20411;-74
2022/11/10 08:32:30;;;;;;;22.57;9.23;;;9.80;95.30;;;;;;5047750;28;20426;-75
2022/11/10 08:34:56;;;;;;;33.97;10.70;;;9.90;97.80;;;;;;5046692;28;20619;-75
2022/11/10 08:37:21;;;;;;;38.27;11.43;;;10.00;96.90;;;;;;5054884;28;20431;-75
2022/11/10 08:39:48;;;;;;;24.13;10.20;;;10.00;92.90;;;;;;5033995;28;20152;-77
2022/11/10 08:43:00;;;;;;;32.73;9.37;;;10.00;91.60;;;;;;5050438;28;20183;-75
2022/11/10 08:45:26;;;;;;;26.10;9.60;;;10.00;89.70;;;;;;5052299;28;20401;-76
2022/11/10 08:48:02;;;;;;;27.20;8.67;;;10.20;89.00;;;;;;5035574;28;20760;-74
2022/11/10 08:50:30;;;;;;;40.30;8.80;;;10.40;89.30;;;;;;5049859;28;20508;-73
2022/11/10 08:52:59;;;;;;;26.53;8.90;;;10.70;81.30;;;;;;5051466;28;20402;-72
2022/11/10 08:55:25;;;;;;;22.43;8.73;;;10.60;65.80;;;;;;5049875;28;20426;-72
2022/11/10 08:57:50;;;;;;;29.27;8.90;;;10.70;42.50;;;;;;5053380;28;20438;-72
2022/11/10 09:00:19;;;;;;;19.97;7.40;;;10.70;42.50;;;;;;5053446;28;20184;-73
2022/11/10 09:02:48;;;;;;;20.23;7.30;;;10.70;42.50;;;;;;5051807;28;20655;-75
2022/11/10 09:05:14;;;;;;;18.77;6.67;;;10.80;42.80;;;;;;5049124;28;20944;-76
2022/11/10 09:07:44;;;;;;;20.10;6.47;;;10.70;42.50;;;;;;5041098;28;20437;-75
2022/11/10 09:10:43;;;;;;;17.03;6.73;;;10.70;42.70;;;;;;5048495;28;20172;-75
2022/11/10 09:13:10;;;;;;;19.33;6.47;;;10.70;42.50;;;;;;5033686;28;20802;-76
2022/11/10 09:15:54;;;;;;;14.20;5.33;;;10.80;42.80;;;;;;5033467;28;20445;-75
2022/11/10 09:18:20;;;;;;;16.30;6.47;;;10.70;42.50;;;;;;5051665;28;20428;-72
2022/11/10 09:20:45;;;;;;;10.80;5.83;;;10.80;42.60;;;;;;5053252;28;20835;-72
2022/11/10 09:23:17;;;;;;;12.70;5.80;;;10.90;42.70;;;;;;5051047;28;20203;-72
2022/11/10 09:25:50;;;;;;;10.07;5.10;;;10.90;42.60;;;;;;5047829;28;20183;-72
2022/11/10 09:28:17;;;;;;;13.70;5.10;;;11.00;42.90;;;;;;5044745;28;20433;-72
2022/11/10 09:30:50;;;;;;;14.17;5.10;;;11.10;40.20;;;;;;5044885;28;20433;-72
2022/11/10 09:33:17;;;;;;;7.20;3.93;;;11.20;22.10;;;;;;5043534;28;20440;-72
2022/11/10 09:35:42;;;;;;;10.70;4.27;;;11.30;19.70;;;;;;5052915;28;20417;-72
2022/11/10 09:38:10;;;;;;;16.73;4.97;;;11.30;5.20;;;;;;5055564;28;20776;-72
2022/11/10 09:40:53;;;;;;;12.47;4.00;;;11.40;4.10;;;;;;5046660;28;20630;-72
2022/11/10 09:43:27;;;;;;;11.50;4.10;;;11.50;1.00;;;;;;5047902;28;20882;-72
2022/11/10 09:45:56;;;;;;;13.10;4.70;;;11.50;1.00;;;;;;5051763;28;20428;-72
2022/11/10 09:48:28;;;;;;;10.93;3.70;;;11.40;1.00;;;;;;5055984;28;20467;-73
2022/11/10 09:51:03;;;;;;;16.67;4.90;;;11.30;1.00;;;;;;5051445;28;20465;-73
2022/11/10 09:53:40;;;;;;;16.17;4.50;;;11.40;1.00;;;;;;5040833;28;20414;-72
2022/11/10 09:56:11;;;;;;;13.63;4.83;;;11.50;1.00;;;;;;5038064;28;20448;-72
2022/11/10 09:58:44;;;;;;;12.60;3.60;;;11.60;1.00;;;;;;5056916;28;20506;-73
2022/11/10 10:01:34;;;;;;;18.40;4.10;;;11.70;1.00;;;;;;5055859;28;20508;-73
2022/11/10 10:04:31;;;;;;;7.63;3.93;;;11.60;1.00;;;;;;5056911;28;20458;-75
2022/11/10 10:07:30;;;;;;;7.20;3.50;;;11.70;1.00;;;;;;5046047;28;20437;-75
2022/11/10 10:10:35;;;;;;;7.93;3.70;;;11.90;1.00;;;;;;5041234;28;21099;-75
2022/11/10 10:13:48;;;;;;;9.83;3.20;;;12.10;1.00;;;;;;5037068;28;20414;-75
2022/11/10 10:17:04;;;;;;;11.53;3.90;;;12.20;1.00;;;;;;5040575;28;20461;-81
2022/11/10 10:20:09;;;;;;;12.60;4.10;;;12.40;1.00;;;;;;4995196;28;20455;-82
2022/11/10 10:22:43;;;;;;;9.50;4.40;;;12.50;1.00;;;;;;4934627;29;20470;-82
2022/11/10 10:25:43;;;;;;;16.70;4.30;;;12.60;1.00;;;;;;4936511;29;20425;-82
2022/11/10 10:28:17;;;;;;;9.60;4.13;;;12.70;1.00;;;;;;4937133;29;20526;-81
2022/11/10 10:31:16;;;;;;;6.77;3.20;;;12.70;1.00;;;;;;4924321;29;20483;-81
2022/11/10 10:33:49;;;;;;;9.63;3.90;;;12.80;1.00;;;;;;4937373;29;20423;-81
2022/11/10 10:36:30;;;;;;;8.50;4.43;;;13.00;1.00;;;;;;4937006;29;20431;-81
2022/11/10 10:39:36;;;;;;;11.90;4.40;;;13.20;1.00;;;;;;4937018;29;20434;-81
2022/11/10 10:42:17;;;;;;;17.70;3.70;;;13.40;1.00;;;;;;4919085;29;20428;-81
2022/11/10 10:45:22;;;;;;;8.80;4.93;;;13.40;1.00;;;;;;4932016;29;20502;-81
2022/11/10 10:48:42;;;;;;;12.33;4.23;;;13.40;1.00;;;;;;4867661;29;20434;-81
2022/11/10 10:54:34;;;;;;;9.73;3.87;;;13.90;1.00;;;;;;4856909;29;20759;-81
2022/11/10 10:57:27;;;;;;;11.63;4.53;;;13.90;1.00;;;;;;4909903;29;20531;-81
2022/11/10 11:00:11;;;;;;;15.93;4.70;;;13.90;1.00;;;;;;4943878;29;20427;-80
2022/11/10 11:03:18;;;;;;;12.10;4.50;;;13.90;1.00;;;;;;4956067;29;20524;-82
2022/11/10 11:06:06;;;;;;;19.50;4.53;;;14.00;1.00;;;;;;4954981;29;20482;-82
2022/11/10 11:09:16;;;;;;;10.00;3.93;;;13.90;1.00;;;;;;4952295;28;20801;-81
2022/11/10 11:11:44;;;;;;;8.83;4.50;;;14.00;1.00;;;;;;4911279;29;20429;-82
2022/11/10 11:14:31;;;;;;;8.87;4.10;;;14.20;1.00;;;;;;4900673;29;20480;-82
2022/11/10 11:17:20;;;;;;;22.80;4.40;;;14.20;1.00;;;;;;4907413;29;20432;-81
2022/11/10 11:20:36;;;;;;;8.63;3.30;;;14.30;1.00;;;;;;4909025;29;20455;-78
2022/11/10 11:23:35;;;;;;;11.60;4.13;;;14.20;1.00;;;;;;5008452;28;20871;-78
2022/11/10 11:26:43;;;;;;;7.37;3.43;;;14.50;1.00;;;;;;4973584;28;20444;-77
2022/11/10 11:29:48;;;;;;;14.20;3.63;;;14.80;1.00;;;;;;4970808;28;20434;-79
2022/11/10 11:32:46;;;;;;;10.80;3.93;;;14.90;1.00;;;;;;4974244;28;20428;-78
2022/11/10 11:35:30;;;;;;;10.13;3.47;;;15.00;1.00;;;;;;4973557;28;20472;-80
2022/11/10 11:38:25;;;;;;;16.10;4.20;;;14.90;1.00;;;;;;4965462;28;20438;-79
2022/11/10 11:41:30;;;;;;;12.40;3.00;;;14.90;1.00;;;;;;4962746;28;20528;-79
2022/11/10 11:44:06;;;;;;;9.30;3.27;;;14.80;1.00;;;;;;4960504;28;20514;-79
2022/11/10 11:46:46;;;;;;;10.30;3.00;;;14.70;1.00;;;;;;4972052;28;20436;-79
2022/11/10 11:49:20;;;;;;;6.50;2.40;;;14.90;1.00;;;;;;4971445;28;20940;-79
2022/11/10 11:51:57;;;;;;;7.80;2.70;;;14.80;1.00;;;;;;4972835;28;20637;-79
2022/11/10 11:54:39;;;;;;;7.23;2.60;;;14.70;1.00;;;;;;4972592;28;20422;-79
2022/11/10 11:57:30;;;;;;;8.70;3.10;;;14.70;1.00;;;;;;4972741;28;20506;-79
2022/11/10 12:00:09;;;;;;;8.90;2.80;;;14.60;1.00;;;;;;4969769;28;20443;-79
2022/11/10 12:02:35;;;;;;;5.00;2.30;;;14.50;1.00;;;;;;4975890;28;20947;-79
2022/11/10 12:05:36;;;;;;;12.07;3.20;;;14.40;1.00;;;;;;4998596;28;20459;-79
2022/11/10 12:08:10;;;;;;;9.23;2.60;;;14.30;1.00;;;;;;5023242;28;20196;-79
2022/11/10 12:10:49;;;;;;;9.00;2.90;;;14.30;1.00;;;;;;5014628;28;20431;-79
2022/11/10 12:13:46;;;;;;;11.10;2.90;;;14.40;1.00;;;;;;5024397;28;20465;-79
2022/11/10 12:16:18;;;;;;;7.73;3.30;;;14.50;1.00;;;;;;5029768;28;20501;-79
2022/11/10 12:19:34;;;;;;;11.23;2.90;;;14.50;1.00;;;;;;5050435;28;20419;-78
2022/11/10 12:22:16;;;;;;;4.20;2.43;;;14.40;1.00;;;;;;4951728;28;20454;-79
2022/11/10 12:25:09;;;;;;;8.20;2.03;;;14.30;1.00;;;;;;4953155;28;20500;-79
2022/11/10 12:27:43;;;;;;;5.67;2.80;;;14.40;1.00;;;;;;4952215;28;20524;-79
2022/11/10 12:30:14;;;;;;;7.57;2.00;;;14.40;1.00;;;;;;4954662;28;20500;-78
2022/11/10 12:32:49;;;;;;;12.10;2.70;;;14.40;1.00;;;;;;4953143;28;20452;-79
2022/11/10 12:35:29;;;;;;;4.40;2.40;;;14.60;1.00;;;;;;4955891;28;21230;-76
2022/11/10 12:38:00;;;;;;;6.40;2.20;;;14.70;1.00;;;;;;4956399;28;20533;-77
2022/11/10 12:40:38;;;;;;;11.60;2.30;;;14.80;1.00;;;;;;4952892;28;20436;-77
2022/11/10 12:43:27;;;;;;;10.17;2.40;;;14.80;1.00;;;;;;4953124;28;20564;-77
2022/11/10 12:45:57;;;;;;;11.33;2.67;;;15.00;1.00;;;;;;4969101;28;21016;-77
2022/11/10 12:48:24;;;;;;;11.33;2.73;;;15.00;1.00;;;;;;4971176;28;20480;-78
2022/11/10 12:51:12;;;;;;;4.67;2.30;;;14.90;1.00;;;;;;4955275;28;20461;-80
2022/11/10 12:53:40;;;;;;;8.23;2.67;;;14.90;1.00;;;;;;4952895;28;20438;-79
2022/11/10 12:56:41;;;;;;;7.83;2.63;;;14.90;1.00;;;;;;4968534;28;20511;-79
2022/11/10 12:59:37;;;;;;;5.17;2.57;;;14.90;1.00;;;;;;5002018;28;20564;-79
2022/11/10 13:02:22;;;;;;;6.20;2.30;;;14.70;1.00;;;;;;4977148;28;20446;-79
2022/11/10 13:05:13;;;;;;;3.80;1.97;;;14.80;1.00;;;;;;4972206;28;20488;-79
2022/11/10 13:07:48;;;;;;;10.57;2.50;;;14.90;1.00;;;;;;4972882;28;20446;-78
2022/11/10 13:10:22;;;;;;;7.63;2.37;;;14.90;1.00;;;;;;4970065;28;20468;-79
2022/11/10 13:13:11;;;;;;;9.67;2.57;;;14.80;1.00;;;;;;4968603;28;20988;-79
2022/11/10 13:15:37;;;;;;;12.30;2.70;;;14.90;1.00;;;;;;4988635;28;21276;-79
2022/11/10 13:18:25;;;;;;;5.97;2.53;;;14.90;1.00;;;;;;4979357;28;20524;-79
2022/11/10 13:21:00;;;;;;;6.20;2.53;;;14.80;1.00;;;;;;4980637;28;20185;-78
2022/11/10 13:23:32;;;;;;;4.47;2.43;;;14.90;1.00;;;;;;4972175;28;20465;-79
2022/11/10 13:26:35;;;;;;;6.67;2.30;;;15.00;1.00;;;;;;4971632;28;20457;-78
2022/11/10 13:29:02;;;;;;;9.17;2.63;;;15.00;1.00;;;;;;4978085;28;21022;-78
2022/11/10 13:31:27;;;;;;;9.97;2.63;;;15.00;1.00;;;;;;4975293;28;20432;-78
2022/11/10 13:34:06;;;;;;;5.13;3.27;;;14.90;1.00;;;;;;4995225;28;20917;-78
2022/11/10 13:36:43;;;;;;;5.30;2.77;;;14.80;1.00;;;;;;4985019;28;20209;-80
2022/11/10 13:39:18;;;;;;;6.00;2.67;;;14.80;1.00;;;;;;5033331;28;20446;-70
2022/11/10 13:42:00;;;;;;;4.77;2.63;;;14.90;1.00;;;;;;5040844;28;20423;-70
2022/11/10 13:44:29;;;;;;;8.57;4.10;;;15.00;1.00;;;;;;5038633;28;20457;-70
2022/11/10 13:47:07;;;;;;;11.40;2.97;;;15.10;1.00;;;;;;5051445;28;20406;-70
2022/11/10 13:50:10;;;;;;;10.00;2.50;;;15.10;1.00;;;;;;5050567;28;20410;-70
2022/11/10 13:52:38;;;;;;;9.97;2.70;;;15.20;1.00;;;;;;5038580;28;20924;-70
2022/11/10 13:55:37;;;;;;;11.53;2.90;;;15.30;1.00;;;;;;5050549;28;20426;-71
2022/11/10 13:58:06;;;;;;;6.27;2.50;;;15.30;1.00;;;;;;5038604;28;20418;-70
2022/11/10 14:00:34;;;;;;;5.07;2.37;;;15.20;1.00;;;;;;5042653;28;20800;-70
2022/11/10 14:03:06;;;;;;;7.83;2.33;;;15.00;1.00;;;;;;5051097;28;20460;-71
2022/11/10 14:05:37;;;;;;;9.27;2.80;;;15.00;1.00;;;;;;5046905;28;20413;-72
2022/11/10 14:08:13;;;;;;;11.00;3.03;;;15.00;1.00;;;;;;5052048;28;20496;-71
2022/11/10 14:10:46;;;;;;;5.73;2.50;;;14.90;1.00;;;;;;5039757;28;20764;-72
2022/11/10 14:13:32;;;;;;;10.53;2.77;;;14.90;1.00;;;;;;5042274;28;20473;-71
2022/11/10 14:15:58;;;;;;;7.97;2.93;;;14.90;1.00;;;;;;5045081;28;20918;-70
2022/11/10 14:18:28;;;;;;;5.27;2.30;;;14.90;1.00;;;;;;5048918;28;20475;-71
2022/11/10 14:20:59;;;;;;;8.80;2.40;;;14.80;1.00;;;;;;5042660;28;20435;-71
2022/11/10 14:23:35;;;;;;;5.73;2.30;;;14.90;1.00;;;;;;5039457;28;20873;-71
2022/11/10 14:26:30;;;;;;;11.10;3.67;;;14.80;1.00;;;;;;5039875;28;20459;-71
2022/11/10 14:28:56;;;;;;;9.03;2.47;;;14.70;1.00;;;;;;5051311;28;20412;-71
2022/11/10 14:31:25;;;;;;;8.87;3.10;;;14.70;1.00;;;;;;5048808;28;20930;-71
2022/11/10 14:33:56;;;;;;;10.60;2.43;;;14.60;1.00;;;;;;5053952;28;20172;-71
2022/11/10 14:36:22;;;;;;;9.17;2.40;;;14.60;1.00;;;;;;5052809;28;20744;-72